Observations for LOSSIEMOUTH RAF, United Kingdom (EGQS)

EGQS 241550Z 17014KT 9999 FEW030 SCT240 BKN300 06/M04 Q1025 BLU NOSIG   
EGQS 241450Z 16019KT 9999 FEW030 BKN300 07/M05 Q1025 BLU NOSIG  
EGQS 241350Z 15016KT 9999 FEW032 BKN300 07/M04 Q1025 BLU NOSIG  
EGQS 241250Z 16018KT 9999 FEW032 BKN300 06/M03 Q1025 BLU NOSIG  
EGQS 241150Z 15015KT 9999 FEW035 BKN300 06/M03 Q1025 BLU NOSIG  
EGQS 241050Z 14012KT 9999 FEW035 SCT240 BKN300 06/M03 Q1024 BLU 
EGQS 240950Z 14014KT 9999 FEW035 SCT240 BKN300 05/M03 Q1024 BLU 
EGQS 240850Z 15014KT 9999 FEW035 SCT240 BKN300 04/M02 Q1024 BLU 
EGQS 240750Z 16015KT 9999 FEW034 SCT240 BKN300 03/M03 Q1023 BLU 
EGQS 240650Z 15015KT CAVOK 02/M03 Q1022 BLU 
EGQS 240550Z 15009KT CAVOK 02/M04 Q1022 BLU 
EGQS 240450Z 17013KT CAVOK 03/M04 Q1022 BLU 
EGQS 240350Z 15012KT 9999 FEW033 BKN250 03/M04 Q1021 BLU
EGQS 240250Z 14009KT 9999 SCT033 BKN250 03/M03 Q1021 BLU
EGQS 240150Z 16010KT 9999 SCT033 BKN250 03/M03 Q1021 BLU
EGQS 240050Z 15013KT 9999 BKN030 03/M03 Q1021 BLU   
EGQS 232350Z 17011KT CAVOK 03/M02 Q1021 BLU 
EGQS 232250Z 16011KT CAVOK 03/M02 Q1021 BLU 
EGQS 232150Z 17013KT CAVOK 03/M02 Q1020 BLU 
EGQS 232050Z 15011KT CAVOK 02/M03 Q1020 BLU 
EGQS 231950Z 15011KT CAVOK 02/M04 Q1020 BLU 
EGQS 231850Z 16013KT CAVOK 03/M04 Q1020 BLU 
EGQS 231750Z 16017KT CAVOK 03/M04 Q1020 BLU 
EGQS 231650Z 16011KT 9999 FEW035 SCT200 04/M04 Q1019 BLU
EGQS 231550Z 17013KT CAVOK 06/M05 Q1019 BLU